PWSweather.com
Personal Weather Stations
Station Observations
SEVANL01
SevillaES 41004

SevillaES 41004

Lat: 37.383633, Lon: -5.985787

Elevation: 19.685

Station Type: Davis Vantage Pro2

Latest ConditionsUpdated 12:00:00 PM GMT+01:01 Wednesday, Dec 12, 2018
Currently Today's Max Today's Min Today's Average
Temperature 60.4°F15.8°C 60.4°F15.8°C 56.0°F13.3°C 57.4°F14.1°C
Dew Point 53.5°F11.9°C 53.5°F11.9°C 52.0°F11.1°C 52.7°F11.5°C
Winds 1.9 mph ENE3.1 kmh ENE 3.2 mph -5.1 kmh - - 1.3 mph 2.1 kmh
Wind Gusts 5.0 mph8.0 kmh 6.0 mph9.7 kmh - -
Humidity 78% 88% 78% 84%
Pressure 30.21 in1023.0 mb 30.22 in1023.4 mb 30.18 in1022.0 mb -
Hour Temp Dew Point Humidity Winds Wind Gusts Pressure Precip Precip Rate Daily Precip Total
12:00 PM 60.4°F15.8°C 53.5°F11.9°C 78% 1.9 mph ENE3.1 kmh ENE 5.0 mph8.0 kmh 30.21 in1023.0 mb 0.00 in0.0 mm 0.00 in0.0 mm 0.00 in0.0 mm
11:40 AM 59.2°F15.1°C 53.0°F11.7°C 80% 3.0 mph E4.8 kmh E 6.0 mph9.7 kmh 30.21 in1023.0 mb 0.00 in0.0 mm 0.00 in0.0 mm 0.00 in0.0 mm
11:20 AM 58.6°F14.8°C 53.1°F11.7°C 82% 1.9 mph NE3.1 kmh NE 4.0 mph6.4 kmh 30.22 in1023.4 mb 0.00 in0.0 mm 0.00 in0.0 mm 0.00 in0.0 mm
11:00 AM 57.2°F14.0°C 52.7°F11.5°C 85% 2.7 mph NNE4.3 kmh NNE 4.0 mph6.4 kmh 30.22 in1023.4 mb 0.00 in0.0 mm 0.00 in0.0 mm 0.00 in0.0 mm
10:40 AM 56.5°F13.6°C 52.0°F11.1°C 85% 3.2 mph NNE5.1 kmh NNE 6.0 mph9.7 kmh 30.22 in1023.4 mb 0.00 in0.0 mm 0.00 in0.0 mm 0.00 in0.0 mm
10:20 AM 56.4°F13.6°C 52.3°F11.3°C 86% 2.9 mph NE4.7 kmh NE 5.0 mph8.0 kmh 30.21 in1023.0 mb 0.00 in0.0 mm 0.00 in0.0 mm 0.00 in0.0 mm
10:00 AM 56.5°F13.6°C 52.4°F11.3°C 86% 3.0 mph NE4.8 kmh NE 6.0 mph9.7 kmh 30.21 in1023.0 mb 0.00 in0.0 mm 0.00 in0.0 mm 0.00 in0.0 mm
09:40 AM 56.3°F13.5°C 52.5°F11.4°C 87% 2.1 mph NE3.4 kmh NE 5.0 mph8.0 kmh 30.21 in1023.0 mb 0.00 in0.0 mm 0.00 in0.0 mm 0.00 in0.0 mm
09:20 AM 56.0°F13.3°C 52.5°F11.4°C 88% 2.3 mph N3.7 kmh N 4.0 mph6.4 kmh 30.20 in1022.7 mb 0.00 in0.0 mm 0.00 in0.0 mm 0.00 in0.0 mm
09:00 AM 56.0°F13.3°C 52.5°F11.4°C 88% 2.4 mph N3.9 kmh N 4.0 mph6.4 kmh 30.20 in1022.7 mb 0.00 in0.0 mm 0.00 in0.0 mm 0.00 in0.0 mm
08:40 AM 56.4°F13.6°C 52.6°F11.4°C 87% 1.4 mph NNW2.3 kmh NNW 4.0 mph6.4 kmh 30.20 in1022.7 mb 0.00 in0.0 mm 0.00 in0.0 mm 0.00 in0.0 mm
08:20 AM 56.5°F13.6°C 52.7°F11.5°C 87% 2.0 mph NNE3.2 kmh NNE 3.0 mph4.8 kmh 30.19 in1022.4 mb 0.00 in0.0 mm 0.00 in0.0 mm 0.00 in0.0 mm
08:00 AM 56.7°F13.7°C 52.6°F11.4°C 86% 0.1 mph 0.2 kmh -- 30.19 in1022.4 mb 0.00 in0.0 mm 0.00 in0.0 mm 0.00 in0.0 mm
07:40 AM 56.7°F13.7°C 52.6°F11.4°C 86% 0.6 mph NNW1.0 kmh NNW 4.0 mph6.4 kmh 30.19 in1022.4 mb 0.00 in0.0 mm 0.00 in0.0 mm 0.00 in0.0 mm
07:20 AM 56.9°F13.8°C 52.8°F11.6°C 86% Calm Calm 3.0 mph4.8 kmh 30.19 in1022.4 mb 0.00 in0.0 mm 0.00 in0.0 mm 0.00 in0.0 mm
07:00 AM 57.2°F14.0°C 53.0°F11.7°C 86% 0.4 mph N0.6 kmh N 3.0 mph4.8 kmh 30.19 in1022.4 mb 0.00 in0.0 mm 0.00 in0.0 mm 0.00 in0.0 mm
06:40 AM 57.2°F14.0°C 52.7°F11.5°C 85% Calm Calm -- 30.18 in1022.0 mb 0.00 in0.0 mm 0.00 in0.0 mm 0.00 in0.0 mm
06:20 AM 57.2°F14.0°C 52.7°F11.5°C 85% Calm Calm -- 30.18 in1022.0 mb 0.00 in0.0 mm 0.00 in0.0 mm 0.00 in0.0 mm
06:00 AM 57.1°F13.9°C 53.0°F11.7°C 86% Calm Calm -- 30.18 in1022.0 mb 0.00 in0.0 mm 0.00 in0.0 mm 0.00 in0.0 mm
05:40 AM 57.0°F13.9°C 52.9°F11.6°C 86% 1.0 mph N1.6 kmh N 3.0 mph4.8 kmh 30.18 in1022.0 mb 0.00 in0.0 mm 0.00 in0.0 mm 0.00 in0.0 mm
05:20 AM 57.2°F14.0°C 52.7°F11.5°C 85% 1.4 mph N2.3 kmh N 3.0 mph4.8 kmh 30.18 in1022.0 mb 0.00 in0.0 mm 0.00 in0.0 mm 0.00 in0.0 mm
05:00 AM 57.3°F14.1°C 52.8°F11.6°C 85% Calm Calm -- 30.18 in1022.0 mb 0.00 in0.0 mm 0.00 in0.0 mm 0.00 in0.0 mm
04:40 AM 57.4°F14.1°C 52.9°F11.6°C 85% Calm Calm -- 30.18 in1022.0 mb 0.00 in0.0 mm 0.00 in0.0 mm 0.00 in0.0 mm
04:20 AM 57.3°F14.1°C 52.8°F11.6°C 85% 1.7 mph NE2.7 kmh NE 3.0 mph4.8 kmh 30.18 in1022.0 mb 0.00 in0.0 mm 0.00 in0.0 mm 0.00 in0.0 mm
04:00 AM 57.4°F14.1°C 52.9°F11.6°C 85% Calm Calm -- 30.19 in1022.4 mb 0.00 in0.0 mm 0.00 in0.0 mm 0.00 in0.0 mm
03:40 AM 57.4°F14.1°C 52.6°F11.4°C 84% 1.8 mph N2.9 kmh N 3.0 mph4.8 kmh 30.19 in1022.4 mb 0.00 in0.0 mm 0.00 in0.0 mm 0.00 in0.0 mm
03:20 AM 57.4°F14.1°C 52.6°F11.4°C 84% 2.0 mph N3.2 kmh N 3.0 mph4.8 kmh 30.18 in1022.0 mb 0.00 in0.0 mm 0.00 in0.0 mm 0.00 in0.0 mm
03:00 AM 57.5°F14.2°C 52.7°F11.5°C 84% 1.0 mph NW1.6 kmh NW 2.0 mph3.2 kmh 30.18 in1022.0 mb 0.00 in0.0 mm 0.00 in0.0 mm 0.00 in0.0 mm
02:40 AM 57.7°F14.3°C 52.9°F11.6°C 84% 0.9 mph NW1.4 kmh NW 3.0 mph4.8 kmh 30.18 in1022.0 mb 0.00 in0.0 mm 0.00 in0.0 mm 0.00 in0.0 mm
02:20 AM 57.9°F14.4°C 52.8°F11.6°C 83% Calm Calm -- 30.18 in1022.0 mb 0.00 in0.0 mm 0.00 in0.0 mm 0.00 in0.0 mm
02:00 AM 58.0°F14.4°C 52.9°F11.6°C 83% Calm Calm -- 30.19 in1022.4 mb 0.00 in0.0 mm 0.00 in0.0 mm 0.00 in0.0 mm
01:40 AM 58.0°F14.4°C 52.9°F11.6°C 83% Calm Calm -- 30.18 in1022.0 mb 0.00 in0.0 mm 0.00 in0.0 mm 0.00 in0.0 mm
01:20 AM 57.7°F14.3°C 52.6°F11.4°C 83% 1.5 mph NNE2.4 kmh NNE 2.0 mph3.2 kmh 30.18 in1022.0 mb 0.00 in0.0 mm 0.00 in0.0 mm 0.00 in0.0 mm
01:00 AM 57.8°F14.3°C 52.3°F11.3°C 82% 2.0 mph NNW3.2 kmh NNW 4.0 mph6.4 kmh 30.20 in1022.7 mb 0.00 in0.0 mm 0.00 in0.0 mm 0.00 in0.0 mm
12:40 AM 58.1°F14.5°C 52.6°F11.4°C 82% 2.1 mph N3.4 kmh N 3.0 mph4.8 kmh 30.20 in1022.7 mb 0.00 in0.0 mm 0.00 in0.0 mm 0.00 in0.0 mm
12:20 AM 58.4°F14.7°C 52.6°F11.4°C 81% 1.3 mph NNW2.1 kmh NNW 4.0 mph6.4 kmh 30.21 in1023.0 mb 0.00 in0.0 mm 0.00 in0.0 mm 0.00 in0.0 mm
12:00 AM 58.8°F14.9°C 52.6°F11.4°C 80% 1.7 mph NE2.7 kmh NE 3.0 mph4.8 kmh 30.20 in1022.7 mb 0.00 in0.0 mm 0.00 in0.0 mm 0.00 in0.0 mm